Time;durP1;ratioP1;P1;durP2;ratioP2;P2;SDS_P1;SDS_P2;PMS_P1;PMS_P2;Temp;Humidity;BMP_temperature;BMP_pressure;BME280_temperature;BME280_humidity;BME280_pressure;Samples;Min_cycle;Max_cycle;Signal;HPM_P1;HPM_P2
2021/12/06 00:02:06;;;;;;;;;;;16.50;45.20;15.30;100765.00;;;;5076868;28;19924;-62
2021/12/06 00:04:52;;;;;;;;;;;16.50;45.20;15.30;100768.00;;;;5062280;28;19982;-62
2021/12/06 00:07:38;;;;;;;;;;;16.50;45.20;15.30;100775.00;;;;5051574;28;19920;-62
2021/12/06 00:10:24;;;;;;;;;;;16.50;45.20;15.30;100779.00;;;;5069280;28;19917;-61
2021/12/06 00:13:11;;;;;;;;;;;16.50;45.20;15.30;100785.00;;;;5058149;28;19997;-62
2021/12/06 00:15:57;;;;;;;;;;;16.50;45.20;15.30;100785.00;;;;5087003;28;20293;-62
2021/12/06 00:18:44;;;;;;;;;;;16.50;45.20;15.30;100792.00;;;;5064886;28;20313;-62
2021/12/06 00:21:31;;;;;;;;;;;16.50;45.20;15.30;100796.00;;;;5066121;28;20007;-61
2021/12/06 00:24:17;;;;;;;;;;;16.50;45.20;15.30;100790.00;;;;5064894;28;19916;-62
2021/12/06 00:27:03;;;;;;;;;;;16.50;45.20;15.30;100796.00;;;;5065419;28;19931;-62
2021/12/06 00:29:49;;;;;;;;;;;16.50;45.20;15.30;100787.00;;;;5040198;28;19920;-61
2021/12/06 00:32:35;;;;;;;;;;;16.50;45.20;15.30;100789.00;;;;5058084;28;20352;-61
2021/12/06 00:35:23;;;;;;;;;;;16.50;45.20;15.30;100785.00;;;;5056450;28;20015;-61
2021/12/06 00:38:10;;;;;;;;;;;16.50;45.20;15.30;100793.00;;;;5067037;28;19959;-62
2021/12/06 00:40:56;;;;;;;;;;;16.50;45.20;15.30;100797.00;;;;5046834;28;19970;-61
2021/12/06 00:43:42;;;;;;;;;;;16.50;45.20;15.30;100794.00;;;;5059508;28;20006;-62
2021/12/06 00:46:28;;;;;;;;;;;16.40;45.20;15.30;100797.00;;;;5066001;28;19925;-62
2021/12/06 00:49:14;;;;;;;;;;;16.50;45.20;15.30;100800.00;;;;5060000;28;20147;-61
2021/12/06 00:52:00;;;;;;;;;;;16.50;45.30;15.30;100806.00;;;;5065672;28;20277;-62
2021/12/06 00:54:46;;;;;;;;;;;16.50;45.30;15.30;100812.00;;;;5068764;28;19955;-62
2021/12/06 00:57:32;;;;;;;;;;;16.50;45.20;15.30;100811.00;;;;5069964;28;19923;-62
2021/12/06 01:00:21;;;;;;;;;;;16.50;45.30;15.30;100808.00;;;;5067666;28;20368;-61
2021/12/06 01:03:13;;;;;;;;;;;16.50;45.30;15.30;100817.00;;;;5071156;28;19923;-62
2021/12/06 01:05:59;;;;;;;;;;;16.50;45.30;15.30;100815.00;;;;5079961;28;20003;-62
2021/12/06 01:08:45;;;;;;;;;;;16.50;45.30;15.30;100810.00;;;;5048062;28;19920;-61
2021/12/06 01:11:31;;;;;;;;;;;16.50;45.20;15.30;100812.00;;;;5051548;28;19922;-61
2021/12/06 01:14:17;;;;;;;;;;;16.50;45.30;15.30;100810.00;;;;5073386;28;20171;-61
2021/12/06 01:17:05;;;;;;;;;;;16.50;45.20;15.30;100819.00;;;;5062397;28;19920;-62
2021/12/06 01:19:51;;;;;;;;;;;16.50;45.20;15.30;100809.00;;;;5059096;28;19916;-61
2021/12/06 01:22:50;;;;;;;;;;;16.50;45.20;15.30;100814.00;;;;5067251;28;20027;-61
2021/12/06 01:29:04;;;;;;;;;;;16.50;45.20;15.30;100832.00;;;;5072128;28;20407;-62
2021/12/06 01:32:01;;;;;;;;;;;16.50;45.20;15.30;100843.00;;;;5063332;28;20426;-62
2021/12/06 01:40:44;;;;;;;;;;;16.50;45.20;15.30;100848.00;;;;5054524;28;19928;-62
2021/12/06 01:43:30;;;;;;;;;;;16.50;45.30;15.30;100851.00;;;;5067265;28;19924;-62
2021/12/06 01:46:16;;;;;;;;;;;16.50;45.30;15.30;100848.00;;;;5079397;28;19935;-62
2021/12/06 01:49:04;;;;;;;;;;;16.50;45.30;15.30;100835.00;;;;5054279;28;19935;-62
2021/12/06 01:51:51;;;;;;;;;;;16.50;45.30;15.30;100845.00;;;;5080093;28;19916;-61
2021/12/06 01:54:37;;;;;;;;;;;16.50;45.30;15.30;100852.00;;;;5060629;28;19929;-61
2021/12/06 01:57:24;;;;;;;;;;;16.50;45.30;15.30;100860.00;;;;5054765;28;19916;-61
2021/12/06 02:00:16;;;;;;;;;;;16.50;45.30;15.30;100862.00;;;;5059932;28;19924;-62
2021/12/06 02:03:02;;;;;;;;;;;16.50;45.30;15.30;100870.00;;;;5070673;28;19920;-62
2021/12/06 02:05:48;;;;;;;;;;;16.50;45.30;15.30;100860.00;;;;5067744;28;19920;-62
2021/12/06 02:08:34;;;;;;;;;;;16.50;45.30;15.30;100866.00;;;;5052938;28;20031;-62
2021/12/06 02:11:24;;;;;;;;;;;16.50;45.30;15.30;100869.00;;;;5062871;28;19969;-61
2021/12/06 02:20:05;;;;;;;;;;;16.50;45.30;15.30;100882.00;;;;5078645;28;19924;-62
2021/12/06 02:22:51;;;;;;;;;;;16.50;45.30;15.30;100879.00;;;;5083224;28;19924;-61
2021/12/06 02:25:37;;;;;;;;;;;16.50;45.30;15.30;100878.00;;;;5094501;28;19927;-61
2021/12/06 02:28:23;;;;;;;;;;;16.40;45.20;15.30;100878.00;;;;5045628;28;20298;-61
2021/12/06 02:31:09;;;;;;;;;;;16.50;45.30;15.30;100882.00;;;;5072110;28;19916;-62
2021/12/06 02:33:55;;;;;;;;;;;16.50;45.30;15.30;100882.00;;;;5087637;28;19935;-61
2021/12/06 02:36:42;;;;;;;;;;;16.50;45.30;15.30;100875.00;;;;5058244;28;19941;-62
2021/12/06 02:39:29;;;;;;;;;;;16.50;45.30;15.30;100873.00;;;;5071455;28;19971;-61
2021/12/06 02:42:16;;;;;;;;;;;16.50;45.40;15.30;100880.00;;;;5071407;28;19916;-62
2021/12/06 02:45:03;;;;;;;;;;;16.50;45.30;15.30;100875.00;;;;5051610;28;19968;-61
2021/12/06 02:47:53;;;;;;;;;;;16.50;45.30;15.30;100882.00;;;;5053868;28;19980;-62
2021/12/06 02:50:50;;;;;;;;;;;16.50;45.30;15.30;100888.00;;;;5064881;28;19920;-61
2021/12/06 02:53:37;;;;;;;;;;;16.50;45.30;15.30;100894.00;;;;5072815;28;19925;-62
2021/12/06 02:56:39;;;;;;;;;;;16.50;45.30;15.30;100899.00;;;;5075683;28;19916;-62
2021/12/06 02:59:25;;;;;;;;;;;16.50;45.30;15.30;100896.00;;;;5058306;28;20052;-62
2021/12/06 03:02:19;;;;;;;;;;;16.40;45.20;15.30;100898.00;;;;5064201;28;19927;-62
2021/12/06 03:05:05;;;;;;;;;;;16.50;45.30;15.30;100908.00;;;;5081764;28;19927;-62
2021/12/06 03:07:57;;;;;;;;;;;16.40;45.20;15.30;100899.00;;;;5064397;28;19916;-61
2021/12/06 03:10:43;;;;;;;;;;;16.50;45.30;15.30;100899.00;;;;5083337;28;19978;-61
2021/12/06 03:13:29;;;;;;;;;;;16.50;45.30;15.30;100901.00;;;;5071464;28;19916;-61
2021/12/06 03:16:15;;;;;;;;;;;16.40;45.20;15.30;100916.00;;;;5072302;28;20014;-62
2021/12/06 03:19:04;;;;;;;;;;;16.40;45.20;15.30;100923.00;;;;5069749;28;19920;-61
2021/12/06 03:21:51;;;;;;;;;;;16.40;45.20;15.20;100936.00;;;;5068407;28;19999;-62
2021/12/06 03:24:37;;;;;;;;;;;16.50;45.30;15.20;100941.00;;;;5060173;28;19916;-61
2021/12/06 03:27:23;;;;;;;;;;;16.40;45.20;15.30;100942.00;;;;5066846;28;19916;-62
2021/12/06 03:30:10;;;;;;;;;;;16.40;45.20;15.20;100935.00;;;;5069290;28;19962;-62
2021/12/06 03:32:56;;;;;;;;;;;16.40;45.30;15.30;100934.00;;;;5084482;27;19917;-62
2021/12/06 03:35:42;;;;;;;;;;;16.40;45.30;15.20;100936.00;;;;5062021;28;20110;-62
2021/12/06 03:38:28;;;;;;;;;;;16.40;45.20;15.30;100932.00;;;;5070497;28;19932;-62
2021/12/06 03:41:15;;;;;;;;;;;16.40;45.30;15.20;100930.00;;;;5073264;28;19999;-61
2021/12/06 03:44:01;;;;;;;;;;;16.40;45.30;15.20;100928.00;;;;5069983;28;19925;-62
2021/12/06 03:46:49;;;;;;;;;;;16.40;45.20;15.20;100933.00;;;;5085633;28;19920;-62
2021/12/06 03:49:35;;;;;;;;;;;16.40;45.20;15.20;100932.00;;;;5067123;28;19924;-62
2021/12/06 03:52:21;;;;;;;;;;;16.40;45.20;15.20;100935.00;;;;5064194;28;19999;-63
2021/12/06 03:55:07;;;;;;;;;;;16.40;45.30;15.20;100935.00;;;;5066290;28;19916;-61
2021/12/06 03:57:54;;;;;;;;;;;16.40;45.30;15.20;100926.00;;;;5084075;28;19921;-62
2021/12/06 04:00:40;;;;;;;;;;;16.40;45.30;15.20;100938.00;;;;5065196;28;19916;-62
2021/12/06 04:03:27;;;;;;;;;;;16.40;45.30;15.20;100938.00;;;;5069252;28;20011;-62
2021/12/06 04:06:13;;;;;;;;;;;16.40;45.30;15.30;100943.00;;;;5063793;28;19942;-62
2021/12/06 04:08:59;;;;;;;;;;;16.40;45.30;15.20;100947.00;;;;5071798;28;20030;-62
2021/12/06 04:11:45;;;;;;;;;;;16.40;45.30;15.30;100944.00;;;;5075962;28;20030;-62
2021/12/06 04:14:31;;;;;;;;;;;16.40;45.30;15.30;100958.00;;;;5065083;28;19916;-61
2021/12/06 04:17:17;;;;;;;;;;;16.40;45.30;15.30;100961.00;;;;5076497;28;19923;-62
2021/12/06 04:20:08;;;;;;;;;;;16.40;45.30;15.30;100966.00;;;;5065011;28;19946;-62
2021/12/06 04:22:55;;;;;;;;;;;16.40;45.30;15.30;100964.00;;;;5054414;28;19931;-62
2021/12/06 04:25:41;;;;;;;;;;;16.50;45.30;15.30;100967.00;;;;5070121;28;20015;-62
2021/12/06 04:28:29;;;;;;;;;;;16.50;45.30;15.30;100966.00;;;;5054069;28;19917;-62
2021/12/06 04:31:16;;;;;;;;;;;16.40;45.20;15.30;100972.00;;;;5064533;28;19916;-62
2021/12/06 04:34:02;;;;;;;;;;;16.40;45.20;15.30;100980.00;;;;5060270;28;20013;-62
2021/12/06 04:36:48;;;;;;;;;;;16.40;45.20;15.30;100971.00;;;;5055261;28;20407;-61
2021/12/06 04:39:36;;;;;;;;;;;16.50;45.30;15.30;100980.00;;;;5070641;28;19924;-61
2021/12/06 04:42:22;;;;;;;;;;;16.50;45.30;15.30;100985.00;;;;5054209;28;20388;-61
2021/12/06 04:45:09;;;;;;;;;;;16.50;45.30;15.30;100989.00;;;;5069992;28;19927;-61
2021/12/06 04:47:55;;;;;;;;;;;16.50;45.30;15.30;100997.00;;;;5066261;28;19952;-61
2021/12/06 04:50:42;;;;;;;;;;;16.50;45.30;15.30;100993.00;;;;5069297;28;20015;-61
2021/12/06 04:53:36;;;;;;;;;;;16.50;45.30;15.30;101003.00;;;;5056682;28;19966;-62
2021/12/06 04:56:23;;;;;;;;;;;16.50;45.30;15.30;101006.00;;;;5063121;28;20003;-62
2021/12/06 04:59:17;;;;;;;;;;;16.50;45.30;15.30;101010.00;;;;5069983;28;19963;-62
2021/12/06 05:02:07;;;;;;;;;;;16.50;45.30;15.30;101018.00;;;;5063245;28;19966;-62
2021/12/06 05:04:56;;;;;;;;;;;16.50;45.30;15.30;101020.00;;;;5083463;28;19923;-62
2021/12/06 05:07:49;;;;;;;;;;;16.40;45.20;15.30;101028.00;;;;5063623;28;19924;-62
2021/12/06 05:10:35;;;;;;;;;;;16.50;45.30;15.30;101026.00;;;;5053671;28;19917;-62
2021/12/06 05:13:21;;;;;;;;;;;16.40;45.20;15.30;101023.00;;;;5078931;28;20394;-61
2021/12/06 05:16:07;;;;;;;;;;;16.40;45.20;15.30;101027.00;;;;5069955;28;19921;-61
2021/12/06 05:18:53;;;;;;;;;;;16.40;45.20;15.30;101033.00;;;;5069652;28;19916;-61
2021/12/06 05:21:40;;;;;;;;;;;16.50;45.20;15.30;101031.00;;;;5061003;28;19930;-61
2021/12/06 05:24:26;;;;;;;;;;;16.50;45.20;15.30;101034.00;;;;5058683;28;20365;-61
2021/12/06 05:27:12;;;;;;;;;;;16.40;45.20;15.30;101031.00;;;;5086230;28;19924;-61
2021/12/06 05:30:01;;;;;;;;;;;16.40;45.20;15.30;101042.00;;;;5063492;28;20369;-62
2021/12/06 05:32:48;;;;;;;;;;;16.40;45.20;15.30;101041.00;;;;5061777;28;19978;-61
2021/12/06 05:35:34;;;;;;;;;;;16.50;45.20;15.30;101045.00;;;;5048520;28;19916;-61
2021/12/06 05:38:20;;;;;;;;;;;16.40;45.20;15.30;101049.00;;;;5075820;28;20360;-61
2021/12/06 05:41:06;;;;;;;;;;;16.40;45.20;15.30;101051.00;;;;5073176;28;20383;-62
2021/12/06 05:43:52;;;;;;;;;;;16.50;45.20;15.30;101053.00;;;;5055269;28;19943;-62
2021/12/06 05:46:38;;;;;;;;;;;16.50;45.30;15.30;101053.00;;;;5060812;28;20296;-62
2021/12/06 05:49:25;;;;;;;;;;;16.40;45.10;15.30;101067.00;;;;5058673;28;19923;-62
2021/12/06 05:52:11;;;;;;;;;;;16.40;45.10;15.30;101063.00;;;;5055593;28;20213;-61
2021/12/06 05:54:58;;;;;;;;;;;16.40;45.80;15.30;101064.00;;;;5053952;28;20007;-61
2021/12/06 05:57:44;;;;;;;;;;;16.40;45.10;15.30;101060.00;;;;5059769;28;19917;-62
2021/12/06 06:00:32;;;;;;;;;;;16.50;45.20;15.30;101063.00;;;;5062566;28;20328;-61
2021/12/06 06:03:18;;;;;;;;;;;16.50;45.20;15.20;101066.00;;;;5050769;28;20357;-62
2021/12/06 06:06:04;;;;;;;;;;;16.40;45.30;15.30;101072.00;;;;5049247;28;19924;-62
2021/12/06 06:08:50;;;;;;;;;;;16.40;45.10;15.30;101060.00;;;;5059915;28;19916;-62
2021/12/06 06:11:36;;;;;;;;;;;16.40;45.10;15.20;101059.00;;;;5057092;28;19996;-62
2021/12/06 06:14:22;;;;;;;;;;;16.40;45.10;15.20;101053.00;;;;5052397;28;22374;-62
2021/12/06 06:17:12;;;;;;;;;;;16.40;45.20;15.20;101056.00;;;;5037598;28;20003;-61
2021/12/06 06:19:59;;;;;;;;;;;16.40;45.10;15.20;101064.00;;;;5058209;28;19916;-62
2021/12/06 06:22:45;;;;;;;;;;;16.40;45.20;15.20;101071.00;;;;5064702;28;19927;-62
2021/12/06 06:25:31;;;;;;;;;;;16.40;45.20;15.20;101077.00;;;;5064548;28;19920;-62
2021/12/06 06:28:17;;;;;;;;;;;16.40;45.10;15.20;101065.00;;;;5036750;28;20354;-61
2021/12/06 06:31:03;;;;;;;;;;;16.40;45.10;15.20;101075.00;;;;5069530;28;19920;-61
2021/12/06 06:33:49;;;;;;;;;;;16.40;45.20;15.20;101073.00;;;;5049660;28;19920;-62
2021/12/06 06:36:35;;;;;;;;;;;16.40;45.10;15.20;101074.00;;;;5074847;28;20387;-62
2021/12/06 06:39:22;;;;;;;;;;;16.40;45.20;15.20;101080.00;;;;5042593;28;19928;-62
2021/12/06 06:42:08;;;;;;;;;;;16.40;45.20;15.20;101073.00;;;;5058334;28;19924;-61
2021/12/06 06:44:55;;;;;;;;;;;16.40;45.90;15.20;101081.00;;;;5064274;28;19924;-63
2021/12/06 06:47:41;;;;;;;;;;;16.30;45.10;15.10;101086.00;;;;5060409;28;19921;-62
2021/12/06 06:50:27;;;;;;;;;;;16.30;45.20;15.10;101093.00;;;;5051139;28;20158;-61
2021/12/06 06:53:13;;;;;;;;;;;16.30;45.20;15.20;101092.00;;;;5080624;28;19923;-62
2021/12/06 06:55:59;;;;;;;;;;;16.40;45.20;15.20;101096.00;;;;5058367;28;19924;-61
2021/12/06 06:58:45;;;;;;;;;;;16.30;45.20;15.10;101092.00;;;;5070952;28;20323;-62
2021/12/06 07:01:31;;;;;;;;;;;16.30;45.40;15.20;101089.00;;;;5070181;28;19995;-63
2021/12/06 07:04:17;;;;;;;;;;;16.30;45.20;15.20;101082.00;;;;5047650;28;19943;-61
2021/12/06 07:07:04;;;;;;;;;;;16.30;45.20;15.20;101085.00;;;;5058960;28;19924;-62
2021/12/06 07:09:51;;;;;;;;;;;16.30;45.20;15.20;101087.00;;;;5059049;28;20294;-62
2021/12/06 07:12:44;;;;;;;;;;;16.30;45.20;15.20;101078.00;;;;5068078;28;20373;-62
2021/12/06 07:15:32;;;;;;;;;;;16.30;45.10;15.20;101067.00;;;;5067657;28;19917;-62
2021/12/06 07:18:18;;;;;;;;;;;16.30;45.10;15.20;101059.00;;;;5067873;28;19916;-61
2021/12/06 07:21:04;;;;;;;;;;;16.30;45.10;15.20;101068.00;;;;5074674;28;19923;-62
2021/12/06 07:23:51;;;;;;;;;;;16.30;45.10;15.20;101069.00;;;;5072722;28;21536;-61
2021/12/06 07:26:37;;;;;;;;;;;16.30;45.10;15.20;101083.00;;;;5070308;28;19920;-61
2021/12/06 07:29:23;;;;;;;;;;;16.30;45.10;15.20;101086.00;;;;5063871;28;20011;-61
2021/12/06 07:32:09;;;;;;;;;;;16.40;45.20;15.20;101082.00;;;;5069523;28;19917;-62
2021/12/06 07:34:55;;;;;;;;;;;16.30;45.10;15.20;101084.00;;;;5054761;28;19916;-61
2021/12/06 07:37:42;;;;;;;;;;;16.40;45.20;15.20;101087.00;;;;5066884;28;19924;-61
2021/12/06 07:40:28;;;;;;;;;;;16.00;44.90;15.20;101090.00;;;;5077175;28;20321;-61
2021/12/06 07:43:14;;;;;;;;;;;16.30;45.10;15.20;101091.00;;;;5067348;28;19920;-61
2021/12/06 07:46:00;;;;;;;;;;;16.30;45.10;15.20;101093.00;;;;5060174;28;19921;-61
2021/12/06 07:48:52;;;;;;;;;;;16.40;45.10;15.20;101100.00;;;;5080702;28;19977;-62
2021/12/06 07:51:38;;;;;;;;;;;16.30;45.10;15.20;101096.00;;;;5071441;28;19917;-62
2021/12/06 07:54:24;;;;;;;;;;;16.30;45.10;15.20;101096.00;;;;5058172;28;19962;-62
2021/12/06 07:57:10;;;;;;;;;;;16.30;45.10;15.20;101095.00;;;;5081527;28;19916;-62
2021/12/06 07:59:56;;;;;;;;;;;16.30;45.10;15.10;101094.00;;;;5075514;28;20362;-61
2021/12/06 08:02:42;;;;;;;;;;;16.30;45.10;15.10;101095.00;;;;5069958;28;20006;-61
2021/12/06 08:05:33;;;;;;;;;;;16.30;45.10;15.20;101084.00;;;;5083878;28;19927;-61
2021/12/06 08:08:23;;;;;;;;;;;16.30;45.10;15.20;101085.00;;;;5074615;28;20116;-62
2021/12/06 08:11:12;;;;;;;;;;;16.30;45.10;15.20;101080.00;;;;5059291;28;19927;-61
2021/12/06 08:13:59;;;;;;;;;;;16.30;45.10;15.20;101080.00;;;;5060671;28;19923;-61
2021/12/06 08:16:45;;;;;;;;;;;16.30;45.10;15.10;101073.00;;;;5085624;28;19920;-62
2021/12/06 08:19:31;;;;;;;;;;;16.30;45.10;15.20;101082.00;;;;5062935;28;20270;-61
2021/12/06 08:22:17;;;;;;;;;;;16.40;45.10;15.20;101070.00;;;;5079779;28;20014;-62
2021/12/06 08:25:04;;;;;;;;;;;16.30;45.10;15.20;101075.00;;;;5078828;28;20012;-61
2021/12/06 08:27:50;;;;;;;;;;;16.30;45.10;15.20;101069.00;;;;5086963;28;19920;-62
2021/12/06 08:30:36;;;;;;;;;;;16.30;45.10;15.20;101083.00;;;;5093102;28;19917;-62
2021/12/06 08:33:22;;;;;;;;;;;16.30;45.10;15.20;101085.00;;;;5073977;28;19927;-62
2021/12/06 08:36:10;;;;;;;;;;;16.30;45.10;15.20;101092.00;;;;5066296;28;19916;-61
2021/12/06 08:38:57;;;;;;;;;;;16.30;45.10;15.20;101084.00;;;;5067363;28;19946;-62
2021/12/06 08:41:43;;;;;;;;;;;16.30;45.10;15.20;101091.00;;;;5078371;28;20123;-61
2021/12/06 08:44:29;;;;;;;;;;;16.20;45.00;15.20;101087.00;;;;5082803;28;19920;-61
2021/12/06 08:47:17;;;;;;;;;;;16.30;45.00;15.20;101087.00;;;;5078063;28;20429;-62
2021/12/06 08:50:03;;;;;;;;;;;16.30;45.00;15.10;101093.00;;;;5074904;28;19930;-62
2021/12/06 08:52:50;;;;;;;;;;;16.30;45.00;15.10;101094.00;;;;5087621;27;19920;-62
2021/12/06 08:55:36;;;;;;;;;;;16.30;45.10;15.10;101087.00;;;;5091005;28;20469;-61
2021/12/06 08:58:22;;;;;;;;;;;16.30;45.10;15.20;101100.00;;;;5068733;28;19926;-62
2021/12/06 09:01:09;;;;;;;;;;;16.30;45.00;15.10;101089.00;;;;5068729;28;19923;-62
2021/12/06 09:03:55;;;;;;;;;;;16.30;45.00;15.10;101094.00;;;;5080426;28;19927;-62
2021/12/06 09:06:43;;;;;;;;;;;16.30;45.00;15.10;101090.00;;;;5083538;28;20022;-62
2021/12/06 09:09:30;;;;;;;;;;;16.30;45.00;15.10;101092.00;;;;5097312;27;19916;-62
2021/12/06 09:12:18;;;;;;;;;;;16.30;45.00;15.10;101094.00;;;;5083529;28;20002;-62
2021/12/06 09:15:08;;;;;;;;;;;16.30;45.10;15.10;101094.00;;;;5051673;28;20228;-61
2021/12/06 09:17:55;;;;;;;;;;;16.30;45.00;15.10;101086.00;;;;5079435;28;19982;-62
2021/12/06 09:20:42;;;;;;;;;;;16.30;45.00;15.10;101082.00;;;;5077842;28;19924;-62
2021/12/06 09:23:32;;;;;;;;;;;16.30;45.00;15.10;101085.00;;;;5074532;28;19974;-61
2021/12/06 09:26:18;;;;;;;;;;;16.30;45.00;15.10;101083.00;;;;5083081;28;19928;-62
2021/12/06 09:29:04;;;;;;;;;;;16.30;45.00;15.10;101074.00;;;;5086274;28;19916;-62
2021/12/06 09:31:52;;;;;;;;;;;16.30;45.00;15.10;101078.00;;;;5096542;28;19969;-62
2021/12/06 09:34:40;;;;;;;;;;;16.30;45.00;15.10;101089.00;;;;5066165;28;20003;-62
2021/12/06 09:37:26;;;;;;;;;;;16.30;45.00;15.10;101079.00;;;;5076114;28;20007;-62
2021/12/06 09:40:14;;;;;;;;;;;16.30;45.00;15.10;101090.00;;;;5096617;27;19930;-62
2021/12/06 09:43:01;;;;;;;;;;;16.30;45.00;15.10;101085.00;;;;5086057;28;20380;-62
2021/12/06 09:45:47;;;;;;;;;;;16.30;45.00;15.10;101088.00;;;;5100406;27;20371;-62
2021/12/06 09:48:34;;;;;;;;;;;16.20;44.90;15.00;101079.00;;;;5076956;28;19970;-61
2021/12/06 09:51:29;;;;;;;;;;;16.30;45.60;15.00;101073.00;;;;5096910;28;19916;-61
2021/12/06 09:54:16;;;;;;;;;;;16.30;45.00;15.00;101083.00;;;;5085550;28;19916;-62
2021/12/06 09:57:03;;;;;;;;;;;16.20;44.90;15.00;101086.00;;;;5078602;28;20008;-62
2021/12/06 09:59:49;;;;;;;;;;;16.20;45.00;15.00;101082.00;;;;5070524;28;20285;-62
2021/12/06 10:02:35;;;;;;;;;;;16.20;45.00;15.10;101083.00;;;;5086784;28;19916;-61
2021/12/06 10:05:26;;;;;;;;;;;16.20;45.00;15.10;101084.00;;;;5082255;28;20105;-61
2021/12/06 10:08:12;;;;;;;;;;;16.20;45.00;15.10;101091.00;;;;5060455;28;19974;-62
2021/12/06 10:10:58;;;;;;;;;;;16.20;45.00;15.10;101086.00;;;;5080515;28;19916;-61
2021/12/06 10:13:44;;;;;;;;;;;16.30;45.00;15.10;101092.00;;;;5070671;28;20015;-61
2021/12/06 10:16:31;;;;;;;;;;;16.20;45.00;15.10;101086.00;;;;5066536;28;19969;-62
2021/12/06 10:19:18;;;;;;;;;;;16.30;45.00;15.10;101093.00;;;;5081138;28;19922;-61
2021/12/06 10:22:04;;;;;;;;;;;16.20;44.90;15.10;101086.00;;;;5090964;28;19916;-62
2021/12/06 10:24:52;;;;;;;;;;;16.20;44.90;15.10;101089.00;;;;5082569;28;20178;-62
2021/12/06 10:27:38;;;;;;;;;;;16.20;44.90;15.00;101082.00;;;;5100006;28;19920;-62
2021/12/06 10:30:25;;;;;;;;;;;16.20;44.90;15.00;101081.00;;;;5094462;28;20124;-62
2021/12/06 10:33:14;;;;;;;;;;;16.10;44.80;15.00;101079.00;;;;5086085;28;19922;-61
2021/12/06 10:36:10;;;;;;;;;;;16.20;44.90;15.00;101072.00;;;;5048290;28;19979;-61
2021/12/06 10:39:01;;;;;;;;;;;16.20;44.90;15.00;101078.00;;;;5059564;28;20017;-62
2021/12/06 10:41:51;;;;;;;;;;;16.20;44.90;15.00;101084.00;;;;5067879;28;19915;-61
2021/12/06 10:44:37;;;;;;;;;;;16.20;44.90;15.00;101071.00;;;;5069890;28;19916;-61
2021/12/06 10:47:23;;;;;;;;;;;16.20;45.00;15.00;101070.00;;;;5081060;28;19966;-61
2021/12/06 10:50:15;;;;;;;;;;;16.20;44.90;15.00;101061.00;;;;5075093;28;20061;-62
2021/12/06 10:53:01;;;;;;;;;;;16.20;44.90;15.00;101060.00;;;;5079202;28;20686;-62
2021/12/06 10:55:48;;;;;;;;;;;16.20;44.90;15.00;101048.00;;;;5099730;27;19916;-62
2021/12/06 10:58:34;;;;;;;;;;;16.20;44.90;15.00;101050.00;;;;5097214;28;19969;-62
2021/12/06 11:01:23;;;;;;;;;;;16.20;44.90;15.00;101050.00;;;;5066913;28;20426;-62
2021/12/06 11:04:12;;;;;;;;;;;16.20;44.90;15.00;101047.00;;;;5065693;28;20309;-62
2021/12/06 11:07:05;;;;;;;;;;;16.20;44.80;15.00;101039.00;;;;5070163;28;20388;-62
2021/12/06 11:09:52;;;;;;;;;;;16.20;44.80;15.00;101032.00;;;;5092040;27;19920;-62
2021/12/06 11:12:38;;;;;;;;;;;16.20;44.90;15.00;101030.00;;;;5059052;28;20010;-62
2021/12/06 11:15:24;;;;;;;;;;;16.20;44.80;15.00;101027.00;;;;5077614;28;20164;-62
2021/12/06 11:18:11;;;;;;;;;;;16.20;44.80;15.00;101022.00;;;;5061641;28;19959;-62
2021/12/06 11:20:57;;;;;;;;;;;16.20;44.80;15.00;101023.00;;;;5081379;28;19916;-62
2021/12/06 11:24:01;;;;;;;;;;;16.20;44.80;15.00;101020.00;;;;5091642;27;19921;-62
2021/12/06 11:26:49;;;;;;;;;;;16.20;44.80;15.00;101022.00;;;;5066437;28;19925;-62
2021/12/06 11:29:37;;;;;;;;;;;16.10;44.70;15.00;101021.00;;;;5071372;28;19922;-61
2021/12/06 11:32:32;;;;;;;;;;;16.10;44.70;15.00;101016.00;;;;5077196;28;20369;-62
2021/12/06 11:35:22;;;;;;;;;;;16.20;44.80;15.00;101016.00;;;;5065311;28;20432;-62
2021/12/06 11:38:12;;;;;;;;;;;16.10;44.70;15.00;101022.00;;;;5087384;28;19928;-62
2021/12/06 11:40:59;;;;;;;;;;;16.10;44.70;15.00;101016.00;;;;5078970;28;19947;-62
2021/12/06 11:43:45;;;;;;;;;;;16.10;44.70;15.00;101005.00;;;;5088945;28;20068;-61
2021/12/06 11:46:31;;;;;;;;;;;16.10;44.70;15.00;100994.00;;;;5084425;28;20388;-62
2021/12/06 11:49:19;;;;;;;;;;;16.10;44.70;15.00;100986.00;;;;5082038;28;20302;-62
2021/12/06 11:52:13;;;;;;;;;;;16.20;44.80;15.00;100981.00;;;;5059764;28;19921;-62
2021/12/06 11:55:05;;;;;;;;;;;16.20;44.80;15.00;100978.00;;;;5078845;28;19922;-62
2021/12/06 11:57:54;;;;;;;;;;;16.10;44.70;15.00;100970.00;;;;5079789;27;19924;-61
2021/12/06 12:00:40;;;;;;;;;;;16.10;44.70;15.00;100972.00;;;;5082650;28;19951;-62
2021/12/06 12:03:31;;;;;;;;;;;16.10;44.70;15.00;100973.00;;;;5080433;28;19916;-62
2021/12/06 12:06:26;;;;;;;;;;;16.10;44.70;15.00;100971.00;;;;5102870;27;19920;-62
2021/12/06 12:09:16;;;;;;;;;;;16.10;44.70;15.00;100974.00;;;;5090743;28;19931;-62
2021/12/06 12:12:13;;;;;;;;;;;16.10;44.70;15.00;100964.00;;;;5090931;27;20007;-61
2021/12/06 12:15:01;;;;;;;;;;;16.20;44.80;15.00;100961.00;;;;5101033;27;19976;-62
2021/12/06 12:17:49;;;;;;;;;;;16.10;44.70;15.00;100971.00;;;;5065490;28;19962;-62
2021/12/06 12:20:36;;;;;;;;;;;16.10;44.70;15.00;100969.00;;;;5093237;27;19924;-62
2021/12/06 12:23:24;;;;;;;;;;;16.10;44.70;15.00;100968.00;;;;5092770;27;19967;-61
2021/12/06 12:26:15;;;;;;;;;;;16.10;44.70;15.00;100962.00;;;;5083565;28;19923;-62
2021/12/06 12:29:12;;;;;;;;;;;16.10;44.70;15.00;100959.00;;;;5066805;28;19920;-62
2021/12/06 12:32:01;;;;;;;;;;;16.10;45.40;15.00;100972.00;;;;5091956;28;20006;-62
2021/12/06 12:34:48;;;;;;;;;;;16.10;44.70;14.90;100970.00;;;;5075273;28;23050;-62
2021/12/06 12:37:36;;;;;;;;;;;16.10;44.70;14.90;100969.00;;;;5108239;27;19920;-61
2021/12/06 12:40:25;;;;;;;;;;;16.10;44.70;15.00;100967.00;;;;5070663;28;19930;-62
2021/12/06 12:43:21;;;;;;;;;;;16.10;44.70;15.00;100944.00;;;;5072530;28;20353;-62
2021/12/06 12:46:11;;;;;;;;;;;16.10;44.70;14.90;100953.00;;;;5085393;28;19920;-62
2021/12/06 12:49:03;;;;;;;;;;;16.10;44.70;14.90;100948.00;;;;5100177;27;19915;-62
2021/12/06 12:51:54;;;;;;;;;;;16.10;44.70;14.90;100947.00;;;;5079869;28;19921;-62
2021/12/06 12:54:44;;;;;;;;;;;16.10;44.70;14.90;100939.00;;;;5085876;28;19916;-62
2021/12/06 12:57:35;;;;;;;;;;;16.10;44.70;14.90;100934.00;;;;5087354;28;20398;-62
2021/12/06 13:00:24;;;;;;;;;;;16.10;44.70;14.90;100931.00;;;;5086163;28;19959;-62
2021/12/06 13:03:33;;;;;;;;;;;16.10;44.70;15.00;100934.00;;;;5086860;28;19931;-62
2021/12/06 13:06:32;;;;;;;;;;;16.10;44.70;14.90;100932.00;;;;5094397;28;20417;-62
2021/12/06 13:09:18;;;;;;;;;;;16.10;44.70;14.90;100914.00;;;;5080498;28;19928;-62
2021/12/06 13:12:06;;;;;;;;;;;16.10;44.70;14.90;100920.00;;;;5088039;28;19916;-62
2021/12/06 13:14:59;;;;;;;;;;;16.10;44.60;14.90;100909.00;;;;5080654;28;19920;-62
2021/12/06 13:17:49;;;;;;;;;;;16.10;44.70;14.90;100911.00;;;;5076558;28;20406;-62
2021/12/06 13:20:38;;;;;;;;;;;16.10;44.70;15.00;100911.00;;;;5066802;28;19942;-62
2021/12/06 13:23:25;;;;;;;;;;;16.10;45.30;14.90;100893.00;;;;5083102;28;19915;-62
2021/12/06 13:26:12;;;;;;;;;;;16.10;44.70;15.00;100896.00;;;;5074136;28;20377;-62
2021/12/06 13:29:06;;;;;;;;;;;16.10;44.60;15.00;100893.00;;;;5063101;28;19971;-62
2021/12/06 13:31:53;;;;;;;;;;;16.10;44.60;14.90;100881.00;;;;5076614;28;19931;-62
2021/12/06 13:34:39;;;;;;;;;;;16.10;44.60;14.90;100881.00;;;;5066191;28;19923;-62
2021/12/06 13:37:25;;;;;;;;;;;16.10;44.60;14.90;100883.00;;;;5081018;28;19951;-61
2021/12/06 13:40:16;;;;;;;;;;;16.10;44.60;14.90;100866.00;;;;5104420;27;20048;-62
2021/12/06 13:43:13;;;;;;;;;;;16.10;44.60;14.90;100869.00;;;;5075466;28;20361;-62
2021/12/06 13:46:09;;;;;;;;;;;16.10;44.60;14.90;100857.00;;;;5094786;27;20404;-62